logo
Search for airport 
image banner adimage banner adimage banner ad
image banner ad

SGTUKU - Tuku

Located in Estancia del Socorro, Paraguay

ICAO - , IATA -

Data provided by Airmate  

General information

Coordinates: S21°19'13" W61°16'37"
Elevation is 668 feet MSL.
Magnetic variation is -13° East
View others Airports in Boquerón Department

Operational data

Special qualification required
Current time UTC:
Current local time:
Weather at : - ( 0 km )
METAR: UIII 162004Z 00000MPS 9000 BKN001 13/13 Q1009 R30/CLRD60 NOSIG RMK QBB050 MT OBSC QFE712/0950
View NOTAMs / SUP AIP / TFR affecting this airport [VIEW]
Communications frequencies: [VIEW]

Runways:

RWY identifierQFULength (ft)Width (ft)SurfaceLDA (ft)
25232°45410DIRT
0752°45410DIRT

Airport contact information

Address: Estancia del Socorro Paraguay

Satellite view of SGTUKU